地図

経路データ

SID SEASON NUMBER BASIN SUBBASIN NAME ISO_TIME NATURE LAT LON WMO_WIND WMO_PRES WMO_AGENCY TRACK_TYPE DIST2LAND LANDFALL IFLAG USA_AGENCY USA_ATCF_ID USA_LAT USA_LON USA_RECORD USA_STATUS USA_WIND USA_PRES USA_SSHS USA_R34_NE USA_R34_SE USA_R34_SW USA_R34_NW USA_R50_NE USA_R50_SE USA_R50_SW USA_R50_NW USA_R64_NE USA_R64_SE USA_R64_SW USA_R64_NW USA_POCI USA_ROCI USA_RMW USA_EYE TOKYO_LAT TOKYO_LON TOKYO_GRADE TOKYO_WIND TOKYO_PRES TOKYO_R50_DIR TOKYO_R50_LONG TOKYO_R50_SHORT TOKYO_R30_DIR TOKYO_R30_LONG TOKYO_R30_SHORT TOKYO_LAND CMA_LAT CMA_LON CMA_CAT CMA_WIND CMA_PRES HKO_LAT HKO_LON HKO_CAT HKO_WIND HKO_PRES NEWDELHI_LAT NEWDELHI_LON NEWDELHI_GRADE NEWDELHI_WIND NEWDELHI_PRES NEWDELHI_CI NEWDELHI_DP NEWDELHI_POCI REUNION_LAT REUNION_LON REUNION_TYPE REUNION_WIND REUNION_PRES REUNION_TNUM REUNION_CI REUNION_RMW REUNION_R34_NE REUNION_R34_SE REUNION_R34_SW REUNION_R34_NW REUNION_R50_NE REUNION_R50_SE REUNION_R50_SW REUNION_R50_NW REUNION_R64_NE REUNION_R64_SE REUNION_R64_SW REUNION_R64_NW BOM_LAT BOM_LON BOM_TYPE BOM_WIND BOM_PRES BOM_TNUM BOM_CI BOM_RMW BOM_R34_NE BOM_R34_SE BOM_R34_SW BOM_R34_NW BOM_R50_NE BOM_R50_SE BOM_R50_SW BOM_R50_NW BOM_R64_NE BOM_R64_SE BOM_R64_SW BOM_R64_NW BOM_ROCI BOM_POCI BOM_EYE BOM_POS_METHOD BOM_PRES_METHOD NADI_LAT NADI_LON NADI_CAT NADI_WIND NADI_PRES WELLINGTON_LAT WELLINGTON_LON WELLINGTON_WIND WELLINGTON_PRES DS824_LAT DS824_LON DS824_STAGE DS824_WIND DS824_PRES TD9636_LAT TD9636_LON TD9636_STAGE TD9636_WIND TD9636_PRES TD9635_LAT TD9635_LON TD9635_WIND TD9635_PRES TD9635_ROCI NEUMANN_LAT NEUMANN_LON NEUMANN_CLASS NEUMANN_WIND NEUMANN_PRES MLC_LAT MLC_LON MLC_CLASS MLC_WIND MLC_PRES USA_GUST BOM_GUST BOM_GUST_PER REUNION_GUST REUNION_GUST_PER USA_SEAHGT USA_SEARAD_NE USA_SEARAD_SE USA_SEARAD_SW USA_SEARAD_NW STORM_SPEED STORM_DIR
1981087S07057 1981 25 SI MM KLARA 1981-03-28 00:00:00 TS -6.60000 56.9000 main 1034 1012 O_________O_O_ jtwc_sh SH261981 -6.60000 56.9000 20 -1 -6.60000 56.9000 1 20 -6.60000 56.9000 TC 20 5 192
1981087S07057 1981 25 SI MM KLARA 1981-03-28 03:00:00 TS -6.84802 56.8465 main 1012 992 P_________P_P_ SH261981 -6.85250 56.8400 20 -1 -6.83907 56.8595 1 20 -6.85250 56.8400 TC 20 5 190
1981087S07057 1981 25 SI MM KLARA 1981-03-28 06:00:00 TS -7.09417 56.8084 main 992 979 O_________P_O_ jtwc_sh SH261981 -7.10000 56.8000 20 -1 -7.08252 56.8252 1 20 -7.10000 56.8000 TC 20 5 187
1981087S07057 1981 25 SI MM KLARA 1981-03-28 09:00:00 TS -7.33990 56.7961 main 979 960 P_________P_P_ SH261981 -7.34250 56.7925 20 -1 -7.33470 56.8032 1 20 -7.34250 56.7925 TC 20 5 0
1981087S07057 1981 25 SI MM KLARA 1981-03-28 12:00:00 TS -7.60000 56.8000 main 960 942 O_________O_O_ jtwc_sh SH261981 -7.60000 56.8000 20 -1 -7.60000 56.8000 1 20 -7.60000 56.8000 TC 20 6 177
1981087S07057 1981 25 SI MM KLARA 1981-03-28 15:00:00 TS -7.88885 56.8057 main 942 925 P_________P_P_ SH261981 -7.89250 56.8000 20 -1 -7.88155 56.8170 1 20 -7.89250 56.8000 TC 20 6 0
1981087S07057 1981 25 SI MM KLARA 1981-03-28 18:00:00 TS -8.19249 56.8124 main 925 907 O_________P_O_ jtwc_sh SH261981 -8.20000 56.8000 20 -1 -8.17747 56.8372 1 20 -8.20000 56.8000 TC 20 6 178
1981087S07057 1981 25 SI MM KLARA 1981-03-28 21:00:00 TS -8.48988 56.8279 main 907 888 P_________P_P_ SH261981 -8.49249 56.8224 20 -1 -8.48466 56.8388 1 20 -8.49249 56.8224 TC 20 6 182
1981087S07057 1981 25 SI MM KLARA 1981-03-29 00:00:00 TS -8.80000 56.8000 main 888 861 O_________O_O_ jtwc_sh SH261981 -8.80000 56.8000 20 -1 -8.80000 56.8000 1 20 -8.80000 56.8000 TC 20 7 193
1981087S07057 1981 25 SI MM KLARA 1981-03-29 03:00:00 TS -9.14199 56.6808 main 861 819 P_________P_P_ SH261981 -9.15001 56.6725 20 -1 -9.12595 56.6973 1 21 -9.15001 56.6725 TC 20 7 202
1981087S07057 1981 25 SI MM KLARA 1981-03-29 06:00:00 TS -9.48584 56.5175 main 819 794 O_________P_O_ jtwc_sh SH261981 -9.50000 56.5000 20 -1 -9.45752 56.5526 1 22 -9.50000 56.5000 TC 20 7 205
1981087S07057 1981 25 SI MM KLARA 1981-03-29 09:00:00 TS -9.80010 56.3655 main 794 759 P_________P_P_ SH261981 -9.80748 56.3574 22 -1 -9.78533 56.3816 1 23 -9.80748 56.3574 TC 22 7 207
1981087S07057 1981 25 SI MM KLARA 1981-03-29 12:00:00 TS -10.1000 56.2000 main 759 725 O_________O_O_ jtwc_sh SH261981 -10.1000 56.2000 25 -1 -10.1000 56.2000 1 25 -10.1000 56.2000 TC 25 7 211
1981087S07057 1981 25 SI MM KLARA 1981-03-29 15:00:00 TS -10.4001 56.0053 main 725 692 P_________P_P_ SH261981 -10.4075 56.0000 25 -1 -10.3853 56.0159 1 25 -10.4075 56.0000 TC 25 7 213
1981087S07057 1981 25 SI MM KLARA 1981-03-29 18:00:00 TS -10.6859 55.8092 main 692 663 O_________P_O_ jtwc_sh SH261981 -10.7000 55.8000 25 -1 -10.6576 55.8275 1 25 -10.7000 55.8000 TC 25 7 214
1981087S07057 1981 25 SI MM KLARA 1981-03-29 21:00:00 TS -10.9420 55.6401 main 663 641 P_________P_P_ SH261981 -10.9500 55.6350 25 -1 -10.9260 55.6503 1 25 -10.9500 55.6350 TC 25 6 211
1981087S07057 1981 25 SI MM KLARA 1981-03-30 00:00:00 TS -11.2000 55.5000 main 641 621 O_________O_O_ jtwc_sh SH261981 -11.2000 55.5000 25 -1 -11.2000 55.5000 1 25 -11.2000 55.5000 TC 25 6 204
1981087S07057 1981 25 SI MM KLARA 1981-03-30 03:00:00 TS -11.4953 55.3873 main 621 601 P_________P_P_ SH261981 -11.4925 55.3850 27 -1 -11.5009 55.3921 1 26 -11.4925 55.3850 TC 27 6 198
1981087S07057 1981 25 SI MM KLARA 1981-03-30 06:00:00 TS -11.8025 55.3041 main 601 582 O_________P_O_ jtwc_sh SH261981 -11.8000 55.3000 30 -1 -11.8074 55.3124 1 27 -11.8000 55.3000 TC 30 6 193
1981087S07057 1981 25 SI MM KLARA 1981-03-30 09:00:00 TS -12.1084 55.2455 main 582 574 P_________P_P_ SH261981 -12.1075 55.2425 30 -1 -12.1103 55.2515 1 28 -12.1075 55.2425 TC 30 6 190
1981087S07057 1981 25 SI MM KLARA 1981-03-30 12:00:00 TS -12.4000 55.2000 main 574 568 O_________O_O_ jtwc_sh SH261981 -12.4000 55.2000 30 -1 -12.4000 55.2000 1 30 -12.4000 55.2000 TC 30 6 190
1981087S07057 1981 25 SI MM KLARA 1981-03-30 15:00:00 TS -12.6625 55.1476 main 555 550 P_________P_P_ SH261981 -12.6575 55.1500 30 -1 -12.6725 55.1427 1 30 -12.6575 55.1500 TC 30 5 191
1981087S07057 1981 25 SI MM KLARA 1981-03-30 18:00:00 TS -12.9100 55.0975 main 550 546 O_________P_O_ jtwc_sh SH261981 -12.9000 55.1000 30 -1 -12.9300 55.0924 1 30 -12.9000 55.1000 TC 30 5 191
1981087S07057 1981 25 SI MM KLARA 1981-03-30 21:00:00 TS -13.1625 55.0486 main 534 525 P_________P_P_ SH261981 -13.1575 55.0500 30 -1 -13.1725 55.0459 1 30 -13.1575 55.0500 TC 30 5 191
1981087S07057 1981 25 SI MM KLARA 1981-03-31 00:00:00 TS -13.4000 55.0000 main 525 516 O_________O_O_ jtwc_sh SH261981 -13.4000 55.0000 30 -1 -13.4000 55.0000 1 30 -13.4000 55.0000 TC 30 5 191
1981087S07057 1981 25 SI MM KLARA 1981-03-31 03:00:00 TS -13.6098 54.9540 main 516 499 P_________P_P_ SH261981 -13.6075 54.9500 30 -1 -13.6143 54.9621 1 30 -13.6075 54.9500 TC 30 4 193
1981087S07057 1981 25 SI MM KLARA 1981-03-31 06:00:00 TS -13.8050 54.9074 main 499 492 O_________P_O_ jtwc_sh SH261981 -13.8000 54.9000 30 -1 -13.8149 54.9223 1 30 -13.8000 54.9000 TC 30 4 193
1981087S07057 1981 25 SI MM KLARA 1981-03-31 09:00:00 TS -14.0027 54.8621 main 492 476 P_________P_P_ SH261981 -14.0000 54.8575 30 -1 -14.0081 54.8714 1 30 -14.0000 54.8575 TC 30 4 202
1981087S07057 1981 25 SI MM KLARA 1981-03-31 12:00:00 TS -14.2000 54.7462 reunion main 465 449 O____O____O_O_ jtwc_sh SH261981 -14.2000 54.8000 30 -1 -14.2000 54.1000 99 9.90000 -14.2000 54.8000 1 30 -14.2000 54.8000 TC 30 5 213
1981087S07057 1981 25 SI MM KLARA 1981-03-31 15:00:00 TS -14.3866 54.6002 main 449 424 P____P____P_P_ SH261981 -14.4000 54.7150 30 -1 -14.2900 53.9400 99 -14.4081 54.7007 1 30 -14.4000 54.7150 TC 30 5 220
1981087S07057 1981 25 SI MM KLARA 1981-03-31 18:00:00 TS -14.5640 54.4347 reunion main 424 412 O____O____P_O_ jtwc_sh SH261981 -14.6000 54.6000 30 -1 -14.4000 53.8000 99 9.90000 -14.6150 54.5800 1 30 -14.6000 54.6000 TC 30 5 222
1981087S07057 1981 25 SI MM KLARA 1981-03-31 21:00:00 TS -14.7430 54.2630 main 412 388 P____P____P_P_ SH261981 -14.8075 54.4575 30 -1 -14.5425 53.6925 99 -14.8144 54.4444 1 30 -14.8075 54.4575 TC 30 5 220
1981087S07057 1981 25 SI MM KLARA 1981-04-01 00:00:00 TS -14.9250 54.1250 reunion main 388 375 O____O____O_O_ jtwc_sh SH261981 -15.0000 54.3000 30 -1 -14.7000 53.6000 99 9.90000 -15.0000 54.3000 1 30 -15.0000 54.3000 TC 30 4 218
1981087S07057 1981 25 SI MM KLARA 1981-04-01 03:00:00 TS -15.0767 53.9934 main 375 364 P____P____P_P_ SH261981 -15.1575 54.1500 30 -1 -14.8275 53.4925 99 -15.1642 54.1814 1 31 -15.1575 54.1500 TC 30 4 220
1981087S07057 1981 25 SI MM KLARA 1981-04-01 06:00:00 TS -15.2287 53.8630 reunion main 364 353 O____O____P_O_ jtwc_sh SH261981 -15.3000 54.0000 30 -1 -15.0000 53.4000 2 9.90000 -15.3147 54.0522 1 32 -15.3000 54.0000 TC 30 4 215
1981087S07057 1981 25 SI MM KLARA 1981-04-01 09:00:00 TS -15.4107 53.7461 main 343 332 P____P____P_P_ SH261981 -15.4500 53.8649 32 -1 -15.2850 53.3574 2 -15.4579 53.8969 1 33 -15.4500 53.8649 TC 32 5 214
1981087S07057 1981 25 SI MM KLARA 1981-04-01 12:00:00 TS -15.6000 53.6000 reunion main 333 312 O____O____O_O_ jtwc_sh SH261981 -15.6000 53.7000 35 0 -15.6000 53.3000 99 9.90000 -15.6000 53.7000 2 35 -15.6000 53.7000 TC 35 5 222
1981087S07057 1981 25 SI MM KLARA 1981-04-01 15:00:00 TS -15.7700 53.4053 main 313 294 P____P____P_P_ SH261981 -15.7500 53.4800 35 0 -15.8424 53.2023 99 -15.7378 53.4591 2 35 -15.7500 53.4800 TC 35 6 232
1981087S07057 1981 25 SI MM KLARA 1981-04-01 18:00:00 TS -15.9443 53.1436 reunion main 284 258 O____O____P_O_ jtwc_sh SH261981 -15.9000 53.2000 35 0 -16.1000 53.0000 99 9.90000 -15.8774 53.1746 2 35 -15.9000 53.2000 TC 35 7 238
1981087S07057 1981 25 SI MM KLARA 1981-04-01 21:00:00 TS -16.1371 52.7976 main 258 226 P____P____P_P_ SH261981 -16.0425 52.8724 35 0 -16.4353 52.5929 99 -16.0283 52.8528 2 35 -16.0425 52.8724 TC 35 8 240
1981087S07057 1981 25 SI MM KLARA 1981-04-02 00:00:00 TS -16.3500 52.4250 reunion main 226 207 O____O____O_O_ jtwc_sh SH261981 -16.2000 52.5000 35 0 -16.8000 52.2000 99 9.90000 -16.2000 52.5000 2 35 -16.2000 52.5000 TC 35 8 237
1981087S07057 1981 25 SI MM KLARA 1981-04-02 03:00:00 TS -16.5756 52.0966 main 212 192 P____P____P_P_ SH261981 -16.3850 52.1074 37 0 -17.1574 52.0473 99 -16.3751 52.1243 2 36 -16.3850 52.1074 TC 37 8 233
1981087S07057 1981 25 SI MM KLARA 1981-04-02 06:00:00 TS -16.8188 51.7805 reunion main 192 178 O____O____P_O_ jtwc_sh SH261981 -16.6000 51.7000 40 0 -17.5000 52.0000 2 9.90000 -16.5751 51.7219 2 37 -16.6000 51.7000 TC 40 8 231
1981087S07057 1981 25 SI MM KLARA 1981-04-02 09:00:00 TS -17.0631 51.4701 main 183 159 P____P____P_P_ SH261981 -16.8274 51.2998 40 0 -17.7849 51.9722 2 -16.8126 51.3085 2 38 -16.8274 51.2998 TC 40 8 229
1981087S07057 1981 25 SI MM KLARA 1981-04-02 12:00:00 TS -17.3500 51.1500 reunion main 159 137 O____O____O_O_ jtwc_sh SH261981 -17.1000 50.9000 40 0 -18.1000 51.9000 99 9.90000 -17.1000 50.9000 2 40 -17.1000 50.9000 TC 40 9 226
1981087S07057 1981 25 SI MM KLARA 1981-04-02 15:00:00 TS -17.6971 50.7876 main 137 105 P____P____P_P_ SH261981 -17.4200 50.4924 40 0 -18.5351 51.6802 99 -17.4133 50.4854 2 38 -17.4200 50.4924 TC 40 10 223
1981087S07057 1981 25 SI MM KLARA 1981-04-02 18:00:00 TS -18.0951 50.4207 reunion main 105 77 O____O____P_O_ jtwc_sh SH261981 -17.8000 50.1000 40 0 -19.0000 51.4000 99 9.90000 -17.7803 50.0827 2 37 -17.8000 50.1000 TC 40 11 219
1981087S07057 1981 25 SI MM KLARA 1981-04-02 21:00:00 TS -18.5117 50.0907 main 81 67 P____P____P_P_ SH261981 -18.2125 49.7274 37 0 -19.4147 51.1946 99 -18.2071 49.7135 2 36 -18.2125 49.7274 TC 37 11 215
1981087S07057 1981 25 SI MM KLARA 1981-04-03 00:00:00 TS -18.9750 49.7750 reunion main 71 47 O____O____O_O_ jtwc_sh SH261981 -18.7000 49.4000 35 0 -19.8000 50.9000 99 9.90000 -18.7000 49.4000 2 35 -18.7000 49.4000 TC 35 12 213
1981087S07057 1981 25 SI MM KLARA 1981-04-03 03:00:00 TS -19.4789 49.4292 main 53 31 P____P____P_P_ SH261981 -19.2700 49.1125 35 0 -20.1279 50.3724 99 -19.2479 49.1194 2 35 -19.2700 49.1125 TC 35 12 210
1981087S07057 1981 25 SI MM KLARA 1981-04-03 06:00:00 TS -20.0399 49.1253 reunion main 31 30 O____O____P_O_ jtwc_sh SH261981 -19.9000 48.9000 35 0 -20.5000 49.8000 3 9.90000 -19.8598 48.9013 2 35 -19.9000 48.9000 TC 35 13 203
1981087S07057 1981 25 SI MM KLARA 1981-04-03 09:00:00 TS -20.6479 48.9056 main 38 38 P____P____P_P_ SH261981 -20.5275 48.7624 35 0 -21.0199 49.3402 3 -20.5167 48.7574 2 35 -20.5275 48.7624 TC 35 13 195
1981087S07057 1981 25 SI MM KLARA 1981-04-03 12:00:00 TS -21.3000 48.7750 reunion main 51 42 O____O____O_O_ jtwc_sh SH261981 -21.2000 48.7000 35 0 -21.6000 49.0000 99 9.90000 -21.2000 48.7000 2 35 -21.2000 48.7000 TC 35 14 189
1981087S07057 1981 25 SI MM KLARA 1981-04-03 15:00:00 TS -21.9964 48.6834 main 56 56 P____P____P_P_ SH261981 -21.9499 48.6479 35 0 -22.1348 48.7527 99 -21.9509 48.6851 2 35 -21.9499 48.6479 TC 35 14 182
1981087S07057 1981 25 SI MM KLARA 1981-04-03 18:00:00 TS -22.7029 48.7153 reunion main 85 85 O____O____P_O_ jtwc_sh SH261981 -22.7000 48.7000 35 0 -22.7000 48.7000 99 9.90000 -22.7115 48.7614 2 35 -22.7000 48.7000 TC 35 14 173
1981087S07057 1981 25 SI MM KLARA 1981-04-03 21:00:00 TS -23.3963 48.8743 main 122 122 P____P____P_P_ SH261981 -23.4099 48.8823 35 0 -23.3493 48.8006 99 -23.4164 48.9321 2 35 -23.4099 48.8823 TC 35 14 161
1981087S07057 1981 25 SI MM KLARA 1981-04-04 00:00:00 TS -24.0000 49.2000 reunion main 166 166 O____O____O_O_ jtwc_sh SH261981 -24.0000 49.2000 35 0 -24.0000 49.2000 99 9.90000 -24.0000 49.2000 2 35 -24.0000 49.2000 TC 35 13 145
1981087S07057 1981 25 SI MM KLARA 1981-04-04 03:00:00 TS -24.4674 49.7092 main 229 229 P____P____P_P_ SH261981 -24.4251 49.6200 35 0 -24.6193 50.0405 99 -24.4001 49.5565 2 33 -24.4251 49.6200 TC 35 13 129
1981087S07057 1981 25 SI MM KLARA 1981-04-04 06:00:00 MX -24.7933 50.2756 reunion main 297 297 O____O____P_O_ jtwc_sh SH261981 -24.7000 50.1000 35 0 -25.1000 50.9000 5 9.90000 -24.6731 50.0025 2 32 -24.7000 50.1000 TC 35 11 120
1981087S07057 1981 25 SI MM KLARA 1981-04-04 09:00:00 MX -24.9964 50.7205 main 342 342 P____P____P_P_ SH261981 -24.8874 50.5503 32 -1 -25.3516 51.2838 5 -24.8594 50.4973 2 31 -24.8874 50.5503 TC 32 8 113
1981087S07057 1981 25 SI MM KLARA 1981-04-04 12:00:00 TS -25.1250 51.1250 reunion main 384 384 O____O____O_O_ jtwc_sh SH261981 -25.0000 51.0000 30 -1 -25.5000 51.5000 99 9.90000 -25.0000 51.0000 1 30 -25.0000 51.0000 TC 30 8 109
1981087S07057 1981 25 SI MM KLARA 1981-04-04 15:00:00 TS -25.2571 51.5451 main 429 429 P____P____P_P_ SH261981 -25.0999 51.4502 30 -1 -25.6999 51.8001 99 -25.1286 51.4798 1 28 -25.0999 51.4502 TC 30 8 109
1981087S07057 1981 25 SI MM KLARA 1981-04-04 18:00:00 TS -25.3819 51.9636 reunion main 480 480 O____O____P_O_ jtwc_sh SH261981 -25.2000 51.9000 30 -1 -25.9000 52.1000 99 9.90000 -25.2278 51.9543 1 27 -25.2000 51.9000 TC 30 8 109
1981087S07057 1981 25 SI MM KLARA 1981-04-04 21:00:00 TS -25.5139 52.3886 main 522 522 P____P____P_P_ SH261981 -25.3200 52.3652 27 -1 -26.0776 52.4226 99 -25.3380 52.4016 1 26 -25.3200 52.3652 TC 27 8 113
1981087S07057 1981 25 SI MM KLARA 1981-04-05 00:00:00 TS -25.7000 52.7750 reunion main 553 553 O____O____O_O_ jtwc_sh SH261981 -25.5000 52.8000 25 -1 -26.3000 52.7000 99 9.90000 -25.5000 52.8000 1 25 -25.5000 52.8000 TC 25 8 126
1981087S07057 1981 25 SI MM KLARA 1981-04-05 03:00:00 TS -25.9836 53.1049 main 571 567 P____P____P_P_ SH261981 -25.7699 53.1874 25 -1 -26.6274 52.8875 99 -25.7671 53.1572 1 23 -25.7699 53.1874 TC 25 8 140
1981087S07057 1981 25 SI MM KLARA 1981-04-05 06:00:00 MX -26.3224 53.3654 reunion main 591 591 O____O____P_O_ jtwc_sh SH261981 -26.1000 53.5000 25 -1 -27.0000 53.0000 5 9.90000 -26.0896 53.4617 1 22 -26.1000 53.5000 TC 25 8 150
1981087S07057 1981 25 SI MM KLARA 1981-04-05 09:00:00 MX -26.6805 53.5534 main 626 626 P____P____P_P_ SH261981 -26.4499 53.7302 22 -1 -27.3799 53.0428 5 -26.4423 53.7104 1 21 -26.4499 53.7302 TC 22 8 157
1981087S07057 1981 25 SI MM KLARA 1981-04-05 12:00:00 TS -27.0250 53.7000 reunion main 654 654 O____O____O_O_ jtwc_sh SH261981 -26.8000 53.9000 20 -1 -27.7000 53.1000 99 9.90000 -26.8000 53.9000 1 20 -26.8000 53.9000 TC 20 7 156
1981087S07057 1981 25 SI MM KLARA 1981-04-05 15:00:00 TS -27.3038 53.8651 main 681 681 P____P____P_P_ SH261981 -27.1000 54.0800 20 -1 -27.8725 53.2701 99 -27.1426 54.0302 1 20 -27.1000 54.0800 TC 20 6 158
1981087S07057 1981 25 SI MM KLARA 1981-04-05 18:00:00 TS -27.6008 53.9646 reunion main 711 711 O____O____P_O_ jtwc_sh SH261981 -27.4000 54.2000 20 -1 -28.0000 53.5000 99 9.90000 -27.4700 54.1131 1 20 -27.4000 54.2000 TC 20 6 168
1981087S07057 1981 25 SI MM KLARA 1981-04-05 21:00:00 TS -27.9234 54.0121 main 744 744 P____P____P_P_ SH261981 -27.7375 54.2276 20 -1 -28.1773 53.7203 99 -27.7875 54.1645 1 20 -27.7375 54.2276 TC 20 7 171
1981087S07057 1981 25 SI MM KLARA 1981-04-06 00:00:00 TS -28.2714 54.0857 reunion main 785 785 O____O____O_O_ jtwc_sh SH261981 -28.1000 54.2000 20 -1 -28.4000 54.0000 99 9.90000 -28.1000 54.2000 1 20 -28.1000 54.2000 TC 20 8 154
1981087S07057 1981 25 SI MM KLARA 1981-04-06 03:00:00 NR -28.6779 54.4369 main 824 823 _____P________ SH261981 -1 -28.6779 54.4369 99 1 TC 10 139
1981087S07057 1981 25 SI MM KLARA 1981-04-06 06:00:00 ET -29.0000 54.8000 reunion main 852 852 _____O________ -1 -29.0000 54.8000 5 9.90000 1 8 149
1981087S07057 1981 25 SI MM KLARA 1981-04-06 09:00:00 ET -29.3722 54.9053 main 896 896 _____P________ -1 -29.3722 54.9053 5 1 7 0
1981087S07057 1981 25 SI MM KLARA 1981-04-06 12:00:00 NR -29.7000 54.8000 reunion main 922 911 _____O________ -1 -29.7000 54.8000 99 9.90000 7 211
1981087S07057 1981 25 SI MM KLARA 1981-04-06 15:00:00 NR -29.9328 54.5154 main 911 894 _____P________ -1 -29.9328 54.5154 99 6 240
1981087S07057 1981 25 SI MM KLARA 1981-04-06 18:00:00 NR -30.0000 54.2000 reunion main 894 880 _____O________ -1 -30.0000 54.2000 99 9.90000 4 278
1981087S07057 1981 25 SI MM KLARA 1981-04-06 21:00:00 NR -29.8749 54.0548 main 880 852 _____P________ -1 -29.8749 54.0548 99 4 337
1981087S07057 1981 25 SI MM KLARA 1981-04-07 00:00:00 NR -29.6000 54.0000 reunion main 852 825 _____O________ -1 -29.6000 54.0000 99 9.90000 6 350
1981087S07057 1981 25 SI MM KLARA 1981-04-07 03:00:00 NR -29.2648 53.9321 main 825 807 _____P________ -1 -29.2648 53.9321 99 7 0
1981087S07057 1981 25 SI MM KLARA 1981-04-07 06:00:00 ET -28.9000 54.0000 reunion main 810 804 _____O________ -1 -28.9000 54.0000 5 9.90000 8 31
1981087S07057 1981 25 SI MM KLARA 1981-04-07 09:00:00 ET -28.5855 54.3960 main 813 776 _____P________ -1 -28.5855 54.3960 5 9 46
1981087S07057 1981 25 SI MM KLARA 1981-04-07 12:00:00 NR -28.3000 54.7000 reunion main 776 744 _____O________ -1 -28.3000 54.7000 99 9.90000 6 11
1981087S07057 1981 25 SI MM KLARA 1981-04-07 15:00:00 NR -27.9897 54.5339 main 745 727 _____P________ -1 -27.9897 54.5339 99 7 313
1981087S07057 1981 25 SI MM KLARA 1981-04-07 18:00:00 NR -27.8000 54.1000 reunion main 730 718 _____O________ -1 -27.8000 54.1000 99 9.90000 9 279
1981087S07057 1981 25 SI MM KLARA 1981-04-07 21:00:00 NR -27.8480 53.5581 main 718 675 _____P________ -1 -27.8480 53.5581 99 10 258
1981087S07057 1981 25 SI MM KLARA 1981-04-08 00:00:00 NR -28.0000 53.0000 reunion main 675 646 _____O________ -1 -28.0000 53.0000 99 9.90000 9 252
1981087S07057 1981 25 SI MM KLARA 1981-04-08 03:00:00 NR -28.1172 52.5972 main 646 628 _____P________ -1 -28.1172 52.5972 99 6 252
1981087S07057 1981 25 SI MM KLARA 1981-04-08 06:00:00 NR -28.2000 52.3000 reunion main 628 _____O________ -1 -28.2000 52.3000 99 9.90000 5 252

IBTrACS Databaseについて

本データベースは、米国NOAAが公開する1842年以降の世界の熱帯低気圧のベストトラックデータアーカイブInternational Best Track Archive for Climate Stewardship (IBTrACS)を、ウェブで閲覧しやすい形式に変換したものです。

最終更新日:2021-11-26